Sakaide Maru — 3EYR6 — position and weather

sailwx.info

Track history (hours):
 
Tides and Currents Weather Stations Pressure Air Temp Water Temp Dewpoint Dewpoint Depression Visibility Wind Speed Wind Dir Waves Ship Positions

Sakaide Maru

Last reported at 2015-Apr-02 10:29 UTC. Time now 2015-Apr-21 01:29 UTC.
Position N 34°00' E 134°58'.
Warning: this ship's position is 18 days out of date.

Length 255 m; draft 7.6 m.

Type: Cargo ship. MMSI: 354898000.

Date/timePositionNaut miles runAvg speedWind from/ knotsBaromVisibWave heightAir tempDewpointWater temp
2015-Apr-02 10:29N 34°00' E 134°58'1212.7
2015-Apr-02 09:33N 34°12' E 134°58'1110.3
2015-Apr-02 08:30N 34°23' E 135°00'1212.4
2015-Apr-02 07:34N 34°33' E 135°06'1010.1
2015-Apr-02 06:33N 34°35' E 134°54'1515.0
2015-Apr-02 05:33N 34°29' E 134°37'  
2015-Mar-28 04:13N 34°32' E 134°44'913.2
2015-Mar-28 03:33N 34°35' E 134°53'10 9.6
2015-Mar-28 02:33N 34°35' E 135°05'6 5.2
2015-Mar-28 01:27N 34°35' E 135°12'0 0.0
2015-Mar-28 00:27N 34°35' E 135°12'0 0.1
2015-Mar-27 23:33N 34°35' E 135°12'0 0.1
2015-Mar-27 22:33N 34°35' E 135°12'0 0.1
2015-Mar-27 21:33N 34°35' E 135°12'0 0.0
2015-Mar-27 20:33N 34°35' E 135°12'0 0.1
2015-Mar-27 19:33N 34°35' E 135°12'0 0.1
2015-Mar-27 18:33N 34°35' E 135°12'0 0.1
2015-Mar-27 17:27N 34°35' E 135°12'0 0.0
2015-Mar-27 16:27N 34°35' E 135°12'0 0.0
2015-Mar-27 15:21N 34°35' E 135°12'0 0.0
2015-Mar-27 14:33N 34°35' E 135°12'0 0.1
2015-Mar-27 13:33N 34°35' E 135°12'0 0.0
2015-Mar-27 12:27N 34°35' E 135°12'0 0.1
2015-Mar-27 11:33N 34°35' E 135°12'0 0.0
2015-Mar-27 10:09N 34°35' E 135°12'0 0.0
2015-Mar-27 09:33N 34°35' E 135°12'0 0.1
2015-Mar-27 08:33N 34°35' E 135°12'0 0.0
2015-Mar-27 07:33N 34°35' E 135°12'0 0.0
2015-Mar-27 06:33N 34°35' E 135°12'0 0.0
2015-Mar-27 05:33N 34°35' E 135°12'0 0.0
2015-Mar-27 04:33N 34°35' E 135°12'0 0.0
2015-Mar-27 03:33N 34°35' E 135°12'0 0.0
2015-Mar-27 02:33N 34°35' E 135°12'0 0.1
2015-Mar-27 01:21N 34°35' E 135°12'0 0.0
2015-Mar-27 00:21N 34°35' E 135°12'0 0.0
2015-Mar-26 23:33N 34°35' E 135°12'0 0.0
2015-Mar-26 22:33N 34°35' E 135°12'0 0.0
2015-Mar-26 21:33N 34°35' E 135°12'0 0.1
2015-Mar-26 20:33N 34°35' E 135°12'0 0.1
2015-Mar-26 19:33N 34°35' E 135°12'0 0.1
2015-Mar-26 18:33N 34°35' E 135°12'0 0.0
2015-Mar-26 17:33N 34°35' E 135°12'0 0.0
2015-Mar-26 16:33N 34°35' E 135°12'0 0.1
2015-Mar-26 15:33N 34°35' E 135°12'0 0.1
2015-Mar-26 14:33N 34°35' E 135°12'0 0.0
2015-Mar-26 13:33N 34°35' E 135°12'0 0.0
2015-Mar-26 12:33N 34°35' E 135°12'0 0.0
2015-Mar-26 11:27N 34°35' E 135°12'0 0.0
2015-Mar-26 10:27N 34°35' E 135°12'0 0.0
2015-Mar-26 09:33N 34°35' E 135°12'0 0.0
2015-Mar-26 08:27N 34°35' E 135°12'0 0.0
2015-Mar-26 07:33N 34°35' E 135°12'0 0.1
2015-Mar-26 06:33N 34°35' E 135°12'0 0.2
2015-Mar-26 05:27N 34°35' E 135°12'0 0.1
2015-Mar-26 04:15N 34°35' E 135°12'0 0.0
2015-Mar-26 03:27N 34°35' E 135°12'0 0.1
2015-Mar-26 02:33N 34°35' E 135°12'4 4.2
2015-Mar-26 01:33N 34°31' E 135°12'1211.9
2015-Mar-26 00:33N 34°21' E 135°03'1110.7
2015-Mar-25 23:33N 34°11' E 134°60'6 6.4
2015-Mar-25 22:33N 34°05' E 134°59'6 6.3
2015-Mar-25 21:31N 33°58' E 134°58'7 7.5
2015-Mar-25 20:32N 33°51' E 134°59'  
Track history (hours):
 
Tides and Currents Weather Stations Pressure Air Temp Water Temp Dewpoint Dewpoint Depression Visibility Wind Speed Wind Dir Waves Ship Positions

Sakaide Maru

Last reported at 2015-Apr-02 10:29 UTC. Time now 2015-Apr-21 01:29 UTC.
Position N 34°00' E 134°58'.
Warning: this ship's position is 18 days out of date.

Length 255 m; draft 7.6 m.

Type: Cargo ship. MMSI: 354898000.

Date/timePositionNaut miles runAvg speedWind from/ knotsBaromVisibWave heightAir tempDewpointWater temp
2015-Apr-02 10:29N 34°00' E 134°58'1212.7
2015-Apr-02 09:33N 34°12' E 134°58'1110.3
2015-Apr-02 08:30N 34°23' E 135°00'1212.4
2015-Apr-02 07:34N 34°33' E 135°06'1010.1
2015-Apr-02 06:33N 34°35' E 134°54'1515.0
2015-Apr-02 05:33N 34°29' E 134°37'  
2015-Mar-28 04:13N 34°32' E 134°44'913.2
2015-Mar-28 03:33N 34°35' E 134°53'10 9.6
2015-Mar-28 02:33N 34°35' E 135°05'6 5.2
2015-Mar-28 01:27N 34°35' E 135°12'0 0.0
2015-Mar-28 00:27N 34°35' E 135°12'0 0.1
2015-Mar-27 23:33N 34°35' E 135°12'0 0.1
2015-Mar-27 22:33N 34°35' E 135°12'0 0.1
2015-Mar-27 21:33N 34°35' E 135°12'0 0.0
2015-Mar-27 20:33N 34°35' E 135°12'0 0.1
2015-Mar-27 19:33N 34°35' E 135°12'0 0.1
2015-Mar-27 18:33N 34°35' E 135°12'0 0.1
2015-Mar-27 17:27N 34°35' E 135°12'0 0.0
2015-Mar-27 16:27N 34°35' E 135°12'0 0.0
2015-Mar-27 15:21N 34°35' E 135°12'0 0.0
2015-Mar-27 14:33N 34°35' E 135°12'0 0.1
2015-Mar-27 13:33N 34°35' E 135°12'0 0.0
2015-Mar-27 12:27N 34°35' E 135°12'0 0.1
2015-Mar-27 11:33N 34°35' E 135°12'0 0.0
2015-Mar-27 10:09N 34°35' E 135°12'0 0.0
2015-Mar-27 09:33N 34°35' E 135°12'0 0.1
2015-Mar-27 08:33N 34°35' E 135°12'0 0.0
2015-Mar-27 07:33N 34°35' E 135°12'0 0.0
2015-Mar-27 06:33N 34°35' E 135°12'0 0.0
2015-Mar-27 05:33N 34°35' E 135°12'0 0.0
2015-Mar-27 04:33N 34°35' E 135°12'0 0.0
2015-Mar-27 03:33N 34°35' E 135°12'0 0.0
2015-Mar-27 02:33N 34°35' E 135°12'0 0.1
2015-Mar-27 01:21N 34°35' E 135°12'0 0.0
2015-Mar-27 00:21N 34°35' E 135°12'0 0.0
2015-Mar-26 23:33N 34°35' E 135°12'0 0.0
2015-Mar-26 22:33N 34°35' E 135°12'0 0.0
2015-Mar-26 21:33N 34°35' E 135°12'0 0.1
2015-Mar-26 20:33N 34°35' E 135°12'0 0.1
2015-Mar-26 19:33N 34°35' E 135°12'0 0.1
2015-Mar-26 18:33N 34°35' E 135°12'0 0.0
2015-Mar-26 17:33N 34°35' E 135°12'0 0.0
2015-Mar-26 16:33N 34°35' E 135°12'0 0.1
2015-Mar-26 15:33N 34°35' E 135°12'0 0.1
2015-Mar-26 14:33N 34°35' E 135°12'0 0.0
2015-Mar-26 13:33N 34°35' E 135°12'0 0.0
2015-Mar-26 12:33N 34°35' E 135°12'0 0.0
2015-Mar-26 11:27N 34°35' E 135°12'0 0.0
2015-Mar-26 10:27N 34°35' E 135°12'0 0.0
2015-Mar-26 09:33N 34°35' E 135°12'0 0.0
2015-Mar-26 08:27N 34°35' E 135°12'0 0.0
2015-Mar-26 07:33N 34°35' E 135°12'0 0.1
2015-Mar-26 06:33N 34°35' E 135°12'0 0.2
2015-Mar-26 05:27N 34°35' E 135°12'0 0.1
2015-Mar-26 04:15N 34°35' E 135°12'0 0.0
2015-Mar-26 03:27N 34°35' E 135°12'0 0.1
2015-Mar-26 02:33N 34°35' E 135°12'4 4.2
2015-Mar-26 01:33N 34°31' E 135°12'1211.9
2015-Mar-26 00:33N 34°21' E 135°03'1110.7
2015-Mar-25 23:33N 34°11' E 134°60'6 6.4
2015-Mar-25 22:33N 34°05' E 134°59'6 6.3
2015-Mar-25 21:31N 33°58' E 134°58'7 7.5
2015-Mar-25 20:32N 33°51' E 134°59'  

Dump ship's entire track history